Time;durP1;ratioP1;P1;durP2;ratioP2;P2;SDS_P1;SDS_P2;PMS_P1;PMS_P2;Temp;Humidity;BMP_temperature;BMP_pressure;BME280_temperature;BME280_humidity;BME280_pressure;Samples;Min_cycle;Max_cycle;Signal;HPM_P1;HPM_P2
2021/09/19 00:01:48;;;;;;;;;;;;;;;6.56;62.10;100304.00;5034312;28;20295;-79
2021/09/19 00:04:14;;;;;;;;;;;;;;;6.58;62.07;100304.56;5014984;28;19975;-79
2021/09/19 00:06:40;;;;;;;;;;;;;;;6.55;61.69;100307.78;5014947;28;20390;-81
2021/09/19 00:09:06;;;;;;;;;;;;;;;6.58;62.00;100313.50;5027292;28;20386;-80
2021/09/19 00:11:32;;;;;;;;;;;;;;;6.56;61.76;100314.88;5034638;28;19920;-79
2021/09/19 00:13:58;;;;;;;;;;;;;;;6.58;62.12;100304.56;5033942;28;20028;-83
2021/09/19 00:16:24;;;;;;;;;;;;;;;6.58;61.51;100313.50;5033798;28;19925;-80
2021/09/19 00:18:50;;;;;;;;;;;;;;;6.51;61.72;100309.41;5034414;28;19947;-79
2021/09/19 00:21:17;;;;;;;;;;;;;;;6.53;61.36;100313.50;5034403;28;19936;-79
2021/09/19 00:23:42;;;;;;;;;;;;;;;6.52;61.68;100311.88;5033350;28;19925;-81
2021/09/19 00:26:09;;;;;;;;;;;;;;;6.49;61.61;100309.69;5034120;28;20079;-79
2021/09/19 00:28:35;;;;;;;;;;;;;;;6.47;61.78;100313.72;5034087;28;20016;-79
2021/09/19 00:31:02;;;;;;;;;;;;;;;6.55;61.70;100314.03;5033946;28;19932;-81
2021/09/19 00:33:28;;;;;;;;;;;;;;;6.52;61.63;100308.31;5033044;28;19925;-79
2021/09/19 00:35:54;;;;;;;;;;;;;;;6.56;61.48;100317.59;5033806;28;19929;-79
2021/09/19 00:38:20;;;;;;;;;;;;;;;6.49;61.55;100316.97;5033582;28;19925;-80
2021/09/19 00:40:46;;;;;;;;;;;;;;;6.50;61.40;100315.91;5018172;28;19986;-82
2021/09/19 00:43:11;;;;;;;;;;;;;;;6.45;61.60;100326.75;5024755;28;20398;-79
2021/09/19 00:45:37;;;;;;;;;;;;;;;6.45;61.26;100321.31;5033758;28;19933;-79
2021/09/19 00:48:03;;;;;;;;;;;;;;;6.43;61.61;100316.16;5033698;28;20570;-79
2021/09/19 00:50:29;;;;;;;;;;;;;;;6.45;61.37;100321.31;5033906;28;20314;-79
2021/09/19 00:52:55;;;;;;;;;;;;;;;6.44;61.15;100325.94;5033123;28;19932;-84
2021/09/19 00:55:24;;;;;;;;;;;;;;;6.41;61.36;100326.44;5033392;28;20435;-79
2021/09/19 00:57:53;;;;;;;;;;;;;;;6.44;61.34;100315.06;5033324;28;19929;-79
2021/09/19 01:00:21;;;;;;;;;;;;;;;6.41;61.34;100326.44;5033706;28;19925;-80
2021/09/19 01:02:47;;;;;;;;;;;;;;;6.37;61.42;100313.66;5032880;28;19932;-79
2021/09/19 01:05:16;;;;;;;;;;;;;;;6.31;61.57;100320.94;5033609;28;20347;-79
2021/09/19 01:07:42;;;;;;;;;;;;;;;6.28;61.40;100324.16;5033111;28;19924;-79
2021/09/19 01:10:08;;;;;;;;;;;;;;;6.32;61.74;100319.84;5033274;28;19932;-79
2021/09/19 01:12:39;;;;;;;;;;;;;;;6.30;61.50;100317.41;5032208;28;19925;-80
2021/09/19 01:15:05;;;;;;;;;;;;;;;6.35;61.39;100316.63;5033426;28;19964;-79
2021/09/19 01:17:32;;;;;;;;;;;;;;;6.32;61.17;100320.69;5032927;28;19933;-80
2021/09/19 01:19:59;;;;;;;;;;;;;;;6.27;61.01;100314.41;5033327;28;19932;-79
2021/09/19 01:22:35;;;;;;;;;;;;;;;6.33;61.15;100313.38;5031575;28;20309;-81
2021/09/19 01:25:04;;;;;;;;;;;;;;;6.30;61.37;100305.72;5032809;28;19925;-79
2021/09/19 01:27:30;;;;;;;;;;;;;;;6.28;61.74;100311.41;5032637;28;19925;-82
2021/09/19 01:29:55;;;;;;;;;;;;;;;6.28;60.94;100305.16;5032841;28;19925;-79
2021/09/19 01:32:22;;;;;;;;;;;;;;;6.27;61.17;100300.81;5032858;28;19968;-79
2021/09/19 01:34:49;;;;;;;;;;;;;;;6.29;61.53;100296.78;5032585;28;19932;-80
2021/09/19 01:37:15;;;;;;;;;;;;;;;6.19;61.38;100296.69;5032747;28;19925;-79
2021/09/19 01:39:43;;;;;;;;;;;;;;;6.17;61.76;100296.13;5032584;28;19925;-80
2021/09/19 01:42:09;;;;;;;;;;;;;;;6.20;61.68;100290.19;5032526;28;20360;-80
2021/09/19 01:44:36;;;;;;;;;;;;;;;6.19;61.48;100290.41;5031941;28;19972;-80
2021/09/19 01:47:02;;;;;;;;;;;;;;;6.15;61.78;100287.41;5032441;28;19925;-81
2021/09/19 01:49:28;;;;;;;;;;;;;;;6.14;61.56;100283.06;5032486;28;19925;-80
2021/09/19 01:51:54;;;;;;;;;;;;;;;6.19;61.56;100290.41;5032318;28;20300;-79
2021/09/19 01:54:21;;;;;;;;;;;;;;;6.18;61.84;100294.22;5032017;28;20028;-79
2021/09/19 01:56:46;;;;;;;;;;;;;;;6.15;61.44;100281.97;5032008;28;20031;-79
2021/09/19 01:59:13;;;;;;;;;;;;;;;6.17;61.39;100274.41;5032613;28;19932;-83
2021/09/19 02:01:39;;;;;;;;;;;;;;;6.15;61.22;100273.84;5031989;28;19925;-79
2021/09/19 02:04:05;;;;;;;;;;;;;;;6.13;61.12;100276.00;5032574;28;19925;-80
2021/09/19 02:06:31;;;;;;;;;;;;;;;6.13;61.18;100276.00;5031434;28;19929;-79
2021/09/19 02:08:57;;;;;;;;;;;;;;;6.09;61.04;100266.72;5032067;28;20016;-80
2021/09/19 02:11:22;;;;;;;;;;;;;;;6.15;60.87;100262.16;5032210;28;19932;-80
2021/09/19 02:13:50;;;;;;;;;;;;;;;6.10;61.06;100262.97;5032388;28;20015;-79
2021/09/19 02:16:20;;;;;;;;;;;;;;;6.12;61.29;100260.78;5031284;28;20026;-79
2021/09/19 02:18:49;;;;;;;;;;;;;;;6.09;60.90;100254.00;5032289;28;19976;-79
2021/09/19 02:21:14;;;;;;;;;;;;;;;6.11;60.65;100254.53;5031997;28;19928;-82
2021/09/19 02:23:41;;;;;;;;;;;;;;;6.12;60.36;100260.78;5031928;28;19944;-79
2021/09/19 02:26:07;;;;;;;;;;;;;;;6.17;60.58;100254.59;5031748;28;20495;-80
2021/09/19 02:28:33;;;;;;;;;;;;;;;6.18;60.27;100257.03;5031954;28;19932;-79
2021/09/19 02:30:59;;;;;;;;;;;;;;;6.18;60.60;100259.75;5031674;28;19925;-80
2021/09/19 02:33:25;;;;;;;;;;;;;;;6.20;60.61;100259.50;5031908;28;19921;-79
2021/09/19 02:35:51;;;;;;;;;;;;;;;6.26;60.33;100259.28;5030049;28;19932;-83
2021/09/19 02:38:18;;;;;;;;;;;;;;;6.24;60.15;100260.59;5032057;28;19925;-79
2021/09/19 02:40:45;;;;;;;;;;;;;;;6.23;60.62;100253.56;5016761;28;20016;-79
2021/09/19 02:43:11;;;;;;;;;;;;;;;6.24;60.74;100258.72;5031416;28;19979;-79
2021/09/19 02:45:37;;;;;;;;;;;;;;;6.20;60.45;100260.31;5031818;28;19925;-79
2021/09/19 02:48:03;;;;;;;;;;;;;;;6.18;60.59;100257.03;5030539;28;19987;-81
2021/09/19 02:50:29;;;;;;;;;;;;;;;6.12;60.98;100258.06;5031933;28;20377;-80
2021/09/19 02:52:57;;;;;;;;;;;;;;;6.10;61.22;100258.34;5031797;28;19925;-80
2021/09/19 02:55:23;;;;;;;;;;;;;;;6.16;61.00;100256.50;5031570;28;19931;-79
2021/09/19 02:57:49;;;;;;;;;;;;;;;6.17;61.28;100260.03;5035447;28;19925;-79
2021/09/19 03:00:17;;;;;;;;;;;;;;;6.17;61.34;100260.84;5035550;28;20385;-80
2021/09/19 03:02:43;;;;;;;;;;;;;;;6.16;61.20;100259.22;5035789;28;19967;-80
2021/09/19 03:05:10;;;;;;;;;;;;;;;6.11;61.49;100259.97;5035658;28;19928;-82
2021/09/19 03:07:36;;;;;;;;;;;;;;;6.16;61.51;100261.91;5035267;28;19925;-80
2021/09/19 03:10:03;;;;;;;;;;;;;;;6.15;61.45;100249.41;5035535;28;19925;-78
2021/09/19 03:12:30;;;;;;;;;;;;;;;6.16;61.32;100252.94;5035776;28;19927;-79
2021/09/19 03:14:56;;;;;;;;;;;;;;;6.19;61.72;100252.41;5035043;28;20293;-80
2021/09/19 03:17:22;;;;;;;;;;;;;;;6.14;62.02;100252.41;5034923;28;19929;-79
2021/09/19 03:19:48;;;;;;;;;;;;;;;6.10;61.65;100255.63;5035571;28;20337;-79
2021/09/19 03:22:16;;;;;;;;;;;;;;;6.06;61.74;100253.66;5035533;28;20418;-79
2021/09/19 03:24:41;;;;;;;;;;;;;;;5.97;61.72;100260.69;5034296;28;19976;-79
2021/09/19 03:27:07;;;;;;;;;;;;;;;6.01;62.01;100249.03;5034298;28;19925;-81
2021/09/19 03:29:33;;;;;;;;;;;;;;;6.05;62.02;100247.44;5035117;28;19987;-79
2021/09/19 03:31:59;;;;;;;;;;;;;;;6.02;62.27;100252.56;5035451;28;19953;-80
2021/09/19 03:34:25;;;;;;;;;;;;;;;6.03;62.45;100251.50;5034812;28;20413;-79
2021/09/19 03:36:52;;;;;;;;;;;;;;;6.05;62.16;100249.34;5034976;28;19925;-80
2021/09/19 03:39:18;;;;;;;;;;;;;;;6.13;62.17;100257.00;5033812;28;19926;-79
2021/09/19 03:41:44;;;;;;;;;;;;;;;6.18;62.29;100262.47;5033923;28;19928;-80
2021/09/19 03:44:10;;;;;;;;;;;;;;;6.17;62.00;100249.97;5034914;28;20366;-82
2021/09/19 03:46:37;;;;;;;;;;;;;;;6.17;62.22;100254.59;5034254;28;19924;-79
2021/09/19 03:49:03;;;;;;;;;;;;;;;6.16;62.24;100251.06;5034725;28;19932;-79
2021/09/19 03:51:30;;;;;;;;;;;;;;;6.13;62.66;100248.88;5034729;28;19932;-79
2021/09/19 03:53:55;;;;;;;;;;;;;;;6.14;62.50;100249.69;5034414;28;19932;-79
2021/09/19 03:56:23;;;;;;;;;;;;;;;6.16;62.29;100253.78;5034599;28;20318;-80
2021/09/19 03:58:49;;;;;;;;;;;;;;;6.11;62.84;100254.53;5034118;28;19925;-79
2021/09/19 04:01:16;;;;;;;;;;;;;;;6.18;62.84;100253.50;5034507;28;19987;-79
2021/09/19 04:03:42;;;;;;;;;;;;;;;6.14;62.54;100260.53;5034213;28;20026;-80
2021/09/19 04:06:08;;;;;;;;;;;;;;;6.15;62.52;100256.75;5034009;28;19925;-82
2021/09/19 04:08:34;;;;;;;;;;;;;;;6.14;62.69;100253.22;5033993;28;19929;-80
2021/09/19 04:11:02;;;;;;;;;;;;;;;6.12;62.71;100258.06;5034591;28;20083;-79
2021/09/19 04:13:28;;;;;;;;;;;;;;;6.16;62.51;100261.91;5034048;28;20027;-79
2021/09/19 04:15:54;;;;;;;;;;;;;;;6.15;62.59;100267.59;5034155;28;19929;-79
2021/09/19 04:18:19;;;;;;;;;;;;;;;6.15;62.66;100273.84;5033847;28;20337;-79
2021/09/19 04:20:45;;;;;;;;;;;;;;;6.18;62.80;100267.06;5034237;28;19962;-79
2021/09/19 04:23:11;;;;;;;;;;;;;;;6.18;62.82;100272.50;5032989;28;19932;-80
2021/09/19 04:25:38;;;;;;;;;;;;;;;6.35;64.23;100273.16;5034251;28;19925;-79
2021/09/19 04:28:04;;;;;;;;;;;;;;;6.60;63.95;100272.53;5033222;28;19929;-78
2021/09/19 04:30:30;;;;;;;;;;;;;;;6.71;61.68;100273.38;5033906;28;20420;-80
2021/09/19 04:32:56;;;;;;;;;;;;;;;6.59;61.63;100269.00;5033653;28;19925;-80
2021/09/19 04:35:22;;;;;;;;;;;;;;;6.51;61.95;100263.22;5033847;28;19925;-80
2021/09/19 04:37:48;;;;;;;;;;;;;;;6.45;62.06;100267.78;5033264;28;19932;-80
2021/09/19 04:40:15;;;;;;;;;;;;;;;6.41;62.43;100265.88;5034129;28;19937;-81
2021/09/19 04:42:40;;;;;;;;;;;;;;;6.44;62.50;100266.16;5033734;28;19924;-81
2021/09/19 04:45:09;;;;;;;;;;;;;;;6.51;62.33;100268.66;5033735;28;20416;-80
2021/09/19 04:47:35;;;;;;;;;;;;;;;6.50;62.01;100272.47;5033695;28;19929;-80
2021/09/19 04:50:01;;;;;;;;;;;;;;;6.53;62.22;100270.03;5033149;28;19971;-80
2021/09/19 04:52:27;;;;;;;;;;;;;;;6.55;62.30;100275.19;5033468;28;20382;-80
2021/09/19 04:54:53;;;;;;;;;;;;;;;6.52;62.27;100262.13;5033819;28;19947;-81
2021/09/19 04:57:19;;;;;;;;;;;;;;;6.58;62.02;100266.50;5033512;28;19947;-89
2021/09/19 04:59:46;;;;;;;;;;;;;;;6.66;62.41;100270.66;5033138;28;19925;-80
2021/09/19 05:02:12;;;;;;;;;;;;;;;6.74;61.94;100270.97;5033432;28;20350;-90
2021/09/19 05:04:39;;;;;;;;;;;;;;;6.62;62.18;100267.63;5033545;28;19932;-80
2021/09/19 05:07:05;;;;;;;;;;;;;;;6.61;61.83;100265.19;5033488;28;19924;-88
2021/09/19 05:09:31;;;;;;;;;;;;;;;6.62;62.41;100262.19;5032739;28;19936;-80
2021/09/19 05:11:57;;;;;;;;;;;;;;;6.62;62.29;100266.81;5033500;28;20019;-80
2021/09/19 05:14:22;;;;;;;;;;;;;;;6.68;62.01;100263.03;5033041;28;19925;-80
2021/09/19 05:16:48;;;;;;;;;;;;;;;6.65;62.00;100260.84;5032822;28;19924;-80
2021/09/19 05:19:14;;;;;;;;;;;;;;;6.58;61.88;100261.91;5032027;28;19983;-80
2021/09/19 05:21:40;;;;;;;;;;;;;;;6.68;62.11;100258.41;5031519;28;19967;-83
2021/09/19 05:24:07;;;;;;;;;;;;;;;6.73;61.87;100260.38;5031892;28;19979;-80
2021/09/19 05:26:33;;;;;;;;;;;;;;;6.78;61.98;100258.47;5032935;28;19951;-81
2021/09/19 05:28:59;;;;;;;;;;;;;;;6.73;61.89;100258.47;5033435;28;19993;-81
2021/09/19 05:31:25;;;;;;;;;;;;;;;6.70;61.84;100269.84;5032622;28;19932;-80
2021/09/19 05:33:53;;;;;;;;;;;;;;;6.78;61.90;100266.63;5033245;28;19971;-89
2021/09/19 05:36:21;;;;;;;;;;;;;;;6.76;61.99;100263.38;5031559;28;19971;-83
2021/09/19 05:38:48;;;;;;;;;;;;;;;6.82;61.73;100264.19;5033058;28;20012;-82
2021/09/19 05:41:14;;;;;;;;;;;;;;;6.81;61.68;100257.94;5032187;28;20032;-84
2021/09/19 05:43:40;;;;;;;;;;;;;;;6.93;61.64;100260.44;5032898;28;20019;-82
2021/09/19 05:46:05;;;;;;;;;;;;;;;7.01;61.02;100254.50;5032619;28;19925;-83
2021/09/19 05:48:33;;;;;;;;;;;;;;;7.03;61.68;100248.81;5012714;28;19971;-83
2021/09/19 05:50:59;;;;;;;;;;;;;;;7.04;61.20;100245.81;5012730;28;19925;-83
2021/09/19 05:53:25;;;;;;;;;;;;;;;7.09;60.98;100249.66;5031447;28;19925;-82
2021/09/19 05:55:51;;;;;;;;;;;;;;;7.09;60.76;100250.47;5032321;28;19932;-82
2021/09/19 05:58:18;;;;;;;;;;;;;;;7.18;61.11;100258.91;5032148;28;20016;-81
2021/09/19 06:00:44;;;;;;;;;;;;;;;7.16;60.51;100250.22;5032491;28;19929;-82
2021/09/19 06:03:11;;;;;;;;;;;;;;;7.15;60.61;100257.56;5031622;28;20394;-82
2021/09/19 06:05:36;;;;;;;;;;;;;;;7.24;61.15;100257.84;5030912;28;19964;-82
2021/09/19 06:08:03;;;;;;;;;;;;;;;7.25;60.25;100254.88;5031556;28;19925;-87
2021/09/19 06:10:29;;;;;;;;;;;;;;;7.28;60.63;100250.75;5032099;28;19932;-85
2021/09/19 06:12:55;;;;;;;;;;;;;;;7.39;60.34;100252.44;5031697;28;20477;-86
2021/09/19 06:15:21;;;;;;;;;;;;;;;7.37;59.70;100248.34;5031814;28;19932;-85
2021/09/19 06:17:47;;;;;;;;;;;;;;;7.36;59.56;100254.88;5032058;28;20031;-86
2021/09/19 06:20:13;;;;;;;;;;;;;;;7.39;60.11;100257.88;5031972;28;20570;-86
2021/09/19 06:22:41;;;;;;;;;;;;;;;7.43;59.50;100260.88;5032035;28;19925;-88
2021/09/19 06:25:07;;;;;;;;;;;;;;;7.50;59.74;100259.53;5031530;28;20605;-86
2021/09/19 06:27:33;;;;;;;;;;;;;;;7.53;59.81;100258.19;5031669;28;19925;-86
2021/09/19 06:29:59;;;;;;;;;;;;;;;7.60;59.74;100250.56;5031856;28;19925;-86
2021/09/19 06:32:25;;;;;;;;;;;;;;;7.56;59.12;100244.03;5031758;28;20287;-86
2021/09/19 06:34:51;;;;;;;;;;;;;;;7.53;59.95;100250.00;5031631;28;19925;-85
2021/09/19 06:37:17;;;;;;;;;;;;;;;7.58;59.47;100238.31;5031811;28;20440;-86
2021/09/19 06:39:44;;;;;;;;;;;;;;;7.73;59.64;100241.88;5030662;28;20019;-85
2021/09/19 06:42:10;;;;;;;;;;;;;;;7.76;59.15;100238.59;5031622;28;20446;-85
2021/09/19 06:44:36;;;;;;;;;;;;;;;7.83;58.85;100249.22;5031489;28;19924;-85
2021/09/19 06:47:02;;;;;;;;;;;;;;;7.80;58.62;100240.78;5031846;28;20444;-88
2021/09/19 06:49:28;;;;;;;;;;;;;;;7.93;58.30;100246.50;5031473;28;19925;-86
2021/09/19 06:51:54;;;;;;;;;;;;;;;8.03;58.09;100242.97;5030535;28;19983;-86
2021/09/19 06:54:20;;;;;;;;;;;;;;;8.06;58.44;100238.88;5031572;28;20477;-85
2021/09/19 06:56:48;;;;;;;;;;;;;;;8.19;58.21;100238.31;5031127;28;20357;-85
2021/09/19 06:59:14;;;;;;;;;;;;;;;8.18;58.22;100240.25;5013743;28;20462;-86
2021/09/19 07:01:42;;;;;;;;;;;;;;;8.20;57.55;100234.50;5031366;28;19925;-86
2021/09/19 07:04:08;;;;;;;;;;;;;;;8.19;58.36;100241.84;5030437;28;19925;-85
2021/09/19 07:06:33;;;;;;;;;;;;;;;8.44;57.44;100238.31;5031086;28;20369;-85
2021/09/19 07:08:59;;;;;;;;;;;;;;;8.39;57.06;100241.03;5031465;28;19940;-89
2021/09/19 07:11:27;;;;;;;;;;;;;;;8.40;57.03;100236.41;5031291;28;19978;-85
2021/09/19 07:13:53;;;;;;;;;;;;;;;8.44;56.97;100227.41;5031360;28;19921;-86
2021/09/19 07:16:19;;;;;;;;;;;;;;;8.57;57.39;100230.63;5030691;28;19936;-85
2021/09/19 07:18:45;;;;;;;;;;;;;;;8.59;56.97;100233.91;5030373;28;19992;-86
2021/09/19 07:21:12;;;;;;;;;;;;;;;8.64;56.70;100231.16;5029805;28;19925;-89
2021/09/19 07:23:38;;;;;;;;;;;;;;;8.57;56.42;100225.19;5030198;28;19925;-85
2021/09/19 07:26:04;;;;;;;;;;;;;;;8.56;56.59;100226.28;5031392;28;19952;-87
2021/09/19 07:28:30;;;;;;;;;;;;;;;8.63;56.69;100224.09;5030750;28;19925;-86
2021/09/19 07:30:56;;;;;;;;;;;;;;;8.63;56.01;100226.81;5026378;28;20012;-89
2021/09/19 07:33:22;;;;;;;;;;;;;;;8.69;56.07;100218.34;5027621;28;20059;-84
2021/09/19 07:35:49;;;;;;;;;;;;;;;8.69;56.20;100215.59;5026158;28;19929;-84
2021/09/19 07:38:16;;;;;;;;;;;;;;;8.84;56.19;100205.72;5026442;28;19979;-85
2021/09/19 07:40:44;;;;;;;;;;;;;;;8.69;56.18;100212.88;5028941;28;20433;-84
2021/09/19 07:43:10;;;;;;;;;;;;;;;8.72;56.50;100210.72;5031750;28;19925;-84
2021/09/19 07:45:38;;;;;;;;;;;;;;;8.81;56.15;100206.31;5032018;28;19924;-84
2021/09/19 07:48:08;;;;;;;;;;;;;;;8.81;56.38;100200.84;5032217;28;19929;-85
2021/09/19 07:50:34;;;;;;;;;;;;;;;8.87;55.79;100200.56;5032679;28;19935;-86
2021/09/19 07:53:00;;;;;;;;;;;;;;;8.89;56.21;100195.63;5032265;28;20318;-89
2021/09/19 07:55:28;;;;;;;;;;;;;;;9.00;55.97;100190.91;5015540;28;19925;-88
2021/09/19 07:57:54;;;;;;;;;;;;;;;9.17;55.48;100193.28;5032032;28;19960;-87
2021/09/19 08:00:20;;;;;;;;;;;;;;;9.28;56.10;100196.78;5029087;28;19925;-88
2021/09/19 08:02:46;;;;;;;;;;;;;;;9.08;55.43;100182.16;5032728;28;19932;-87
2021/09/19 08:05:12;;;;;;;;;;;;;;;9.23;55.23;100197.63;5013251;28;19926;-88
2021/09/19 08:07:38;;;;;;;;;;;;;;;9.39;55.18;100179.22;5033134;28;19979;-88
2021/09/19 08:10:04;;;;;;;;;;;;;;;9.43;54.66;100187.66;5032708;28;19929;-88
2021/09/19 08:12:30;;;;;;;;;;;;;;;9.45;54.58;100183.56;5030517;28;20340;-87
2021/09/19 08:14:56;;;;;;;;;;;;;;;9.45;54.71;100180.84;5033699;28;19925;-87
2021/09/19 08:17:21;;;;;;;;;;;;;;;9.35;54.59;100176.25;5013820;28;19975;-90
2021/09/19 08:19:48;;;;;;;;;;;;;;;9.36;55.02;100179.81;5029968;28;20480;-86
2021/09/19 08:22:14;;;;;;;;;;;;;;;9.36;54.79;100177.06;5031954;28;19953;-86
2021/09/19 08:24:40;;;;;;;;;;;;;;;9.49;54.65;100184.63;5031195;28;19929;-88
2021/09/19 08:27:07;;;;;;;;;;;;;;;9.49;52.75;100175.63;5027832;28;20394;-85
2021/09/19 08:29:35;;;;;;;;;;;;;;;9.55;53.09;100183.47;5031439;28;20270;-86
2021/09/19 08:32:01;;;;;;;;;;;;;;;9.49;53.13;100179.16;5032620;28;20011;-88
2021/09/19 08:34:28;;;;;;;;;;;;;;;9.47;53.18;100173.19;5032744;28;20629;-88
2021/09/19 08:36:54;;;;;;;;;;;;;;;9.23;52.76;100185.88;5032218;28;19983;-86
2021/09/19 08:39:23;;;;;;;;;;;;;;;9.26;53.55;100179.88;5032662;28;19925;-86
2021/09/19 08:41:50;;;;;;;;;;;;;;;9.13;53.61;100181.31;5032537;28;19932;-85
2021/09/19 08:44:17;;;;;;;;;;;;;;;9.15;53.86;100181.84;5031024;28;19925;-85
2021/09/19 08:46:44;;;;;;;;;;;;;;;9.28;54.04;100185.88;5032417;28;19929;-87
2021/09/19 08:49:11;;;;;;;;;;;;;;;9.26;53.86;100188.06;5032459;28;19932;-89
2021/09/19 08:51:38;;;;;;;;;;;;;;;9.26;54.20;100183.41;5031056;28;20242;-89
2021/09/19 08:54:05;;;;;;;;;;;;;;;9.23;53.15;100185.88;5032731;28;19925;-87
2021/09/19 08:56:31;;;;;;;;;;;;;;;9.16;53.64;100189.75;5031482;28;19936;-86
2021/09/19 08:58:57;;;;;;;;;;;;;;;9.32;53.80;100182.28;5030496;28;19925;-86
2021/09/19 09:01:23;;;;;;;;;;;;;;;9.44;54.06;100183.84;5027863;28;19925;-87
2021/09/19 09:03:51;;;;;;;;;;;;;;;9.50;53.23;100180.78;5024110;28;19925;-85
2021/09/19 09:06:18;;;;;;;;;;;;;;;9.57;52.38;100191.38;5031955;28;19925;-88
2021/09/19 09:08:44;;;;;;;;;;;;;;;9.56;52.67;100193.28;5031183;28;19932;-89
2021/09/19 09:11:11;;;;;;;;;;;;;;;9.45;52.25;100183.56;5032324;28;19997;-86
2021/09/19 09:13:38;;;;;;;;;;;;;;;9.41;52.82;100183.31;5026650;28;19932;-88
2021/09/19 09:16:05;;;;;;;;;;;;;;;9.44;53.09;100189.28;5031685;28;19935;-89
2021/09/19 09:18:38;;;;;;;;;;;;;;;9.36;53.93;100183.34;5027214;28;20722;-89
2021/09/19 09:21:08;;;;;;;;;;;;;;;9.33;53.73;100194.00;5032222;28;20656;-88
2021/09/19 09:23:35;;;;;;;;;;;;;;;9.31;53.61;100194.31;5030447;28;19929;-88
2021/09/19 09:26:16;;;;;;;;;;;;;;;9.35;53.90;100197.28;5031609;28;19980;-89
2021/09/19 09:28:42;;;;;;;;;;;;;;;9.32;54.09;100195.13;5029355;28;20302;-91
2021/09/19 09:31:09;;;;;;;;;;;;;;;9.23;53.88;100188.63;5030599;28;20366;-89
2021/09/19 09:33:35;;;;;;;;;;;;;;;9.22;54.24;100193.25;4997456;28;19929;-87
2021/09/19 09:36:06;;;;;;;;;;;;;;;9.27;54.07;100189.69;5030265;28;20334;-88
2021/09/19 09:38:32;;;;;;;;;;;;;;;9.22;53.51;100187.00;5030514;28;19983;-89
2021/09/19 09:40:58;;;;;;;;;;;;;;;9.10;53.38;100196.31;5014155;28;20016;-89
2021/09/19 09:43:25;;;;;;;;;;;;;;;9.16;53.65;100195.19;5031582;28;19929;-84
2021/09/19 09:45:52;;;;;;;;;;;;;;;9.25;54.37;100191.88;5031175;28;20057;-84
2021/09/19 09:48:25;;;;;;;;;;;;;;;9.16;54.16;100189.75;5031482;28;19929;-85
2021/09/19 09:50:54;;;;;;;;;;;;;;;9.23;54.00;100200.34;5031388;28;19967;-88
2021/09/19 09:53:22;;;;;;;;;;;;;;;9.25;53.62;100187.25;5030266;28;19924;-88
2021/09/19 09:55:50;;;;;;;;;;;;;;;9.13;53.68;100187.56;5031385;28;19976;-88
2021/09/19 09:58:21;;;;;;;;;;;;;;;9.08;54.00;100186.81;5011809;28;19925;-91
2021/09/19 10:00:50;;;;;;;;;;;;;;;9.13;54.43;100184.84;5031399;28;19925;-89
2021/09/19 10:03:17;;;;;;;;;;;;;;;9.08;54.50;100176.72;5013833;28;20368;-89
2021/09/19 10:05:45;;;;;;;;;;;;;;;9.15;54.25;100179.94;5030698;28;19929;-86
2021/09/19 10:08:12;;;;;;;;;;;;;;;9.14;54.56;100172.06;5020887;28;19932;-89
2021/09/19 10:10:48;;;;;;;;;;;;;;;9.14;54.67;100170.13;5024766;28;20455;-89
2021/09/19 10:13:18;;;;;;;;;;;;;;;9.13;54.55;100171.22;5031353;28;19925;-90
2021/09/19 10:15:44;;;;;;;;;;;;;;;9.12;54.15;100168.78;5032055;28;19929;-88
2021/09/19 10:18:11;;;;;;;;;;;;;;;9.16;54.63;100148.81;5032705;28;19955;-88
2021/09/19 10:20:37;;;;;;;;;;;;;;;9.10;54.52;100157.31;5014853;28;19956;-88
2021/09/19 10:23:12;;;;;;;;;;;;;;;9.24;54.30;100149.31;5032158;28;19932;-89
2021/09/19 10:25:47;;;;;;;;;;;;;;;9.32;55.04;100146.00;5031205;28;20270;-87
2021/09/19 10:28:28;;;;;;;;;;;;;;;9.33;54.00;100144.88;5032198;28;20019;-87
2021/09/19 10:31:09;;;;;;;;;;;;;;;9.34;53.80;100154.72;5032008;28;19932;-90
2021/09/19 10:33:37;;;;;;;;;;;;;;;9.38;53.21;100153.06;5030968;28;20348;-87
2021/09/19 10:36:08;;;;;;;;;;;;;;;9.43;53.56;100139.34;5031628;28;19982;-89
2021/09/19 10:38:38;;;;;;;;;;;;;;;9.35;53.67;100142.72;5031696;28;19971;-92
2021/09/19 10:41:14;;;;;;;;;;;;;;;9.28;53.76;100136.75;5025832;28;19925;-90
2021/09/19 10:43:49;;;;;;;;;;;;;;;9.37;53.86;100129.56;5028682;28;19932;-90
2021/09/19 10:46:34;;;;;;;;;;;;;;;9.31;53.45;100137.00;5047919;28;20023;-88
2021/09/19 10:49:17;;;;;;;;;;;;;;;9.25;53.12;100126.41;5029693;28;19933;-91
2021/09/19 10:52:01;;;;;;;;;;;;;;;9.17;52.96;100131.38;5031976;28;19944;-89
2021/09/19 10:54:43;;;;;;;;;;;;;;;9.22;53.50;100135.97;5001129;28;20382;-82
2021/09/19 10:57:27;;;;;;;;;;;;;;;9.22;53.18;100124.25;5024882;28;19964;-82
2021/09/19 11:00:09;;;;;;;;;;;;;;;9.29;53.51;100122.00;5032211;28;19925;-81
2021/09/19 11:02:35;;;;;;;;;;;;;;;9.32;53.61;100124.19;5030504;28;20527;-87
2021/09/19 11:05:20;;;;;;;;;;;;;;;9.31;53.31;100130.75;5030567;28;19932;-81
2021/09/19 11:07:46;;;;;;;;;;;;;;;9.29;53.07;100122.81;5029982;28;19925;-83
2021/09/19 11:10:15;;;;;;;;;;;;;;;9.35;53.02;100123.59;5031641;28;19932;-83
2021/09/19 11:12:43;;;;;;;;;;;;;;;9.34;52.84;100122.78;5032145;28;20011;-81
2021/09/19 11:15:14;;;;;;;;;;;;;;;9.35;53.29;100127.16;5032496;28;19925;-82
2021/09/19 11:17:44;;;;;;;;;;;;;;;9.38;52.97;100123.84;5035309;28;20283;-82
2021/09/19 11:20:10;;;;;;;;;;;;;;;9.40;53.02;100123.56;5036017;28;19925;-83
2021/09/19 11:22:58;;;;;;;;;;;;;;;9.38;53.13;100110.22;5034644;28;19925;-82
2021/09/19 11:25:26;;;;;;;;;;;;;;;9.40;53.21;100112.63;5034940;28;19925;-81
2021/09/19 11:27:52;;;;;;;;;;;;;;;9.44;52.71;100108.25;5035191;28;20390;-87
2021/09/19 11:30:21;;;;;;;;;;;;;;;9.49;52.98;100100.00;5035230;28;19925;-84
2021/09/19 11:32:47;;;;;;;;;;;;;;;9.51;53.86;100094.28;5033448;28;19925;-85
2021/09/19 11:35:15;;;;;;;;;;;;;;;9.45;53.24;100088.03;5030729;28;20413;-81
2021/09/19 11:37:41;;;;;;;;;;;;;;;9.45;53.21;100090.78;5033819;28;19936;-81
2021/09/19 11:40:09;;;;;;;;;;;;;;;9.45;52.82;100088.03;5033319;28;20341;-82
2021/09/19 11:42:36;;;;;;;;;;;;;;;9.40;53.38;100088.06;5033560;28;19932;-81
2021/09/19 11:45:06;;;;;;;;;;;;;;;9.45;53.71;100095.41;5032270;28;19952;-87
2021/09/19 11:47:40;;;;;;;;;;;;;;;9.43;53.79;100083.97;5035045;28;20036;-83
2021/09/19 11:50:07;;;;;;;;;;;;;;;9.45;54.11;100089.97;5034402;28;19925;-87
2021/09/19 11:52:33;;;;;;;;;;;;;;;9.41;53.42;100087.00;5034416;28;20035;-86
2021/09/19 11:54:58;;;;;;;;;;;;;;;9.37;53.68;100083.19;5034685;28;19925;-86
2021/09/19 11:57:24;;;;;;;;;;;;;;;9.33;53.27;100091.13;5033337;28;19929;-81
2021/09/19 11:59:53;;;;;;;;;;;;;;;9.31;53.67;100087.09;5033122;28;19932;-81
2021/09/19 12:02:18;;;;;;;;;;;;;;;9.36;53.79;100076.09;5032002;28;19925;-82
2021/09/19 12:04:45;;;;;;;;;;;;;;;9.37;54.12;100073.13;5033205;28;20403;-85
2021/09/19 12:07:12;;;;;;;;;;;;;;;9.41;54.84;100078.81;5032737;28;19925;-88
2021/09/19 12:09:56;;;;;;;;;;;;;;;9.29;54.33;100081.91;5033118;28;20474;-82
2021/09/19 12:12:22;;;;;;;;;;;;;;;9.24;54.77;100081.94;5032512;28;19947;-83
2021/09/19 12:14:49;;;;;;;;;;;;;;;9.26;54.54;100076.19;5032778;28;20382;-80
2021/09/19 12:17:21;;;;;;;;;;;;;;;9.30;54.44;100066.34;5032718;28;19986;-81
2021/09/19 12:19:48;;;;;;;;;;;;;;;9.25;54.30;100074.56;5032701;28;19933;-86
2021/09/19 12:22:23;;;;;;;;;;;;;;;9.27;53.88;100059.56;5032860;28;19925;-86
2021/09/19 12:24:56;;;;;;;;;;;;;;;9.21;53.98;100068.88;5032635;28;19925;-84
2021/09/19 12:27:26;;;;;;;;;;;;;;;9.32;54.05;100067.69;5032355;28;19936;-82
2021/09/19 12:29:57;;;;;;;;;;;;;;;9.36;53.89;100059.72;5032716;28;20642;-82
2021/09/19 12:32:41;;;;;;;;;;;;;;;9.36;54.23;100059.72;5032831;28;19929;-81
2021/09/19 15:01:08;;;;;;;;;;;;;;;8.04;62.82;99985.91;5050884;22;19971;-77
2021/09/19 15:03:34;;;;;;;;;;;;;;;8.05;62.13;99973.94;5034720;28;19929;-81
2021/09/19 15:06:05;;;;;;;;;;;;;;;7.99;62.25;99981.31;5016683;28;19932;-87
2021/09/19 15:08:31;;;;;;;;;;;;;;;8.05;63.67;99968.50;5035045;28;19925;-88
2021/09/19 15:10:57;;;;;;;;;;;;;;;8.00;63.12;99958.44;5053693;28;20365;-78
2021/09/19 15:13:24;;;;;;;;;;;;;;;7.95;63.48;99952.22;5043613;28;20428;-79
2021/09/19 15:15:50;;;;;;;;;;;;;;;7.96;63.72;99953.81;5043819;28;19931;-91